Time;durP1;ratioP1;P1;durP2;ratioP2;P2;SDS_P1;SDS_P2;PMS_P1;PMS_P2;Temp;Humidity;BMP_temperature;BMP_pressure;BME280_temperature;BME280_humidity;BME280_pressure;Samples;Min_cycle;Max_cycle;Signal;HPM_P1;HPM_P2
2022/04/23 00:01:49;;;;;;;10.65;7.22;;;12.00;82.00;;;;;;5055259;28;20029;-68
2022/04/23 00:04:14;;;;;;;8.20;6.90;;;12.00;82.10;;;;;;5055488;28;20063;-68
2022/04/23 00:06:43;;;;;;;10.15;7.78;;;11.90;82.10;;;;;;5055270;28;20507;-67
2022/04/23 00:09:08;;;;;;;10.50;8.75;;;11.90;82.50;;;;;;5055294;28;20017;-68
2022/04/23 00:11:34;;;;;;;9.70;7.53;;;11.90;82.90;;;;;;5055254;28;20538;-68
2022/04/23 00:14:00;;;;;;;12.30;8.98;;;11.80;83.00;;;;;;5055274;28;20027;-68
2022/04/23 00:16:26;;;;;;;12.05;9.07;;;11.80;84.00;;;;;;5055118;28;20389;-68
2022/04/23 00:18:51;;;;;;;10.38;8.88;;;11.80;83.80;;;;;;5055246;28;20556;-68
2022/04/23 00:21:21;;;;;;;12.23;9.55;;;11.70;84.00;;;;;;5055206;28;20029;-68
2022/04/23 00:23:50;;;;;;;11.35;8.98;;;11.70;84.20;;;;;;5054705;28;20155;-68
2022/04/23 00:26:16;;;;;;;11.02;9.07;;;11.70;84.30;;;;;;5055095;28;20025;-68
2022/04/23 00:28:42;;;;;;;12.55;9.60;;;11.70;84.40;;;;;;5054865;28;20029;-68
2022/04/23 00:31:07;;;;;;;13.23;10.55;;;11.60;84.80;;;;;;5054716;28;20039;-68
2022/04/23 00:33:37;;;;;;;12.93;10.88;;;11.60;85.10;;;;;;5054910;28;20059;-68
2022/04/23 00:36:06;;;;;;;;;;;11.60;85.20;;;;;;5055190;28;20427;-68
2022/04/23 00:38:36;;;;;;;13.25;9.27;;;11.50;86.10;;;;;;5054635;28;19912;-68
2022/04/23 00:41:02;;;;;;;13.95;11.68;;;11.50;86.10;;;;;;5054978;28;20032;-68
2022/04/23 00:43:30;;;;;;;13.77;11.60;;;11.50;86.30;;;;;;5054490;28;20037;-68
2022/04/23 00:45:57;;;;;;;11.90;10.25;;;11.50;86.40;;;;;;5054469;28;20428;-68
2022/04/23 00:48:24;;;;;;;13.52;11.40;;;11.50;86.80;;;;;;5053418;28;20410;-68
2022/04/23 00:50:56;;;;;;;14.10;11.98;;;11.50;87.10;;;;;;5054302;28;20017;-68
2022/04/23 00:53:23;;;;;;;17.45;12.68;;;11.40;87.60;;;;;;5053592;28;20377;-68
2022/04/23 00:55:50;;;;;;;17.00;13.30;;;11.40;87.80;;;;;;5054289;28;20036;-68
2022/04/23 00:58:16;;;;;;;15.80;12.05;;;11.40;88.10;;;;;;5053200;28;20029;-68
2022/04/23 01:00:43;;;;;;;13.70;11.63;;;11.40;88.40;;;;;;5054176;28;20162;-68
2022/04/23 01:03:11;;;;;;;13.27;11.45;;;11.30;88.60;;;;;;5037501;28;20455;-68
2022/04/23 01:05:36;;;;;;;15.95;12.43;;;11.30;88.60;;;;;;5034599;28;20100;-68
2022/04/23 01:08:04;;;;;;;15.00;12.65;;;11.40;88.60;;;;;;5034330;28;20097;-68
2022/04/23 01:10:30;;;;;;;16.25;13.60;;;11.40;88.70;;;;;;5048932;28;20028;-68
2022/04/23 01:12:55;;;;;;;15.52;13.00;;;11.30;88.90;;;;;;5034336;28;20029;-67
2022/04/23 01:15:21;;;;;;;17.70;13.05;;;11.30;89.00;;;;;;5034205;28;20386;-68
2022/04/23 01:17:49;;;;;;;17.77;14.65;;;11.30;89.30;;;;;;5033968;28;20021;-68
2022/04/23 01:20:16;;;;;;;15.77;13.65;;;11.30;89.70;;;;;;5034018;28;20052;-68
2022/04/23 01:22:44;;;;;;;15.27;12.10;;;11.30;89.90;;;;;;5033694;28;20523;-68
2022/04/23 01:25:12;;;;;;;16.75;13.68;;;11.30;90.00;;;;;;5034063;28;20032;-68
2022/04/23 01:27:45;;;;;;;16.05;12.00;;;11.20;90.00;;;;;;5033851;28;20428;-69
2022/04/23 01:30:11;;;;;;;15.27;12.77;;;11.20;90.00;;;;;;5034338;28;20101;-68
2022/04/23 01:32:37;;;;;;;16.83;14.43;;;11.20;90.10;;;;;;5048518;28;20116;-68
2022/04/23 01:35:04;;;;;;;18.33;14.00;;;11.20;90.20;;;;;;5053880;28;20550;-68
2022/04/23 01:37:30;;;;;;;16.83;12.93;;;11.10;90.30;;;;;;5053720;28;20507;-68
2022/04/23 01:39:55;;;;;;;16.92;14.40;;;11.20;90.40;;;;;;5052290;28;20033;-68
2022/04/23 01:42:20;;;;;;;17.23;13.07;;;11.10;90.40;;;;;;5052348;28;20507;-68
2022/04/23 01:44:51;;;;;;;16.23;12.90;;;11.10;90.50;;;;;;5053337;28;20108;-68
2022/04/23 01:47:17;;;;;;;16.83;14.30;;;11.10;90.60;;;;;;5053303;28;20171;-68
2022/04/23 01:49:46;;;;;;;16.52;14.15;;;11.10;90.80;;;;;;5052245;28;20075;-69
2022/04/23 01:52:13;;;;;;;17.00;13.88;;;11.10;90.80;;;;;;5053507;28;20079;-68
2022/04/23 01:54:39;;;;;;;16.92;14.35;;;11.10;90.90;;;;;;5053521;28;20392;-68
2022/04/23 01:57:05;;;;;;;19.95;15.80;;;11.10;90.80;;;;;;5053377;28;20488;-68
2022/04/23 01:59:30;;;;;;;20.83;16.92;;;11.10;91.00;;;;;;5053390;28;20087;-68
2022/04/23 02:01:58;;;;;;;23.10;16.98;;;11.10;91.10;;;;;;5052848;28;20036;-68
2022/04/23 02:04:24;;;;;;;20.75;16.17;;;11.10;91.30;;;;;;5053262;28;20021;-68
2022/04/23 02:06:50;;;;;;;19.02;15.85;;;11.00;91.30;;;;;;5052976;28;20021;-68
2022/04/23 02:09:16;;;;;;;20.20;15.73;;;11.00;91.30;;;;;;5053089;28;20032;-68
2022/04/23 02:11:41;;;;;;;20.90;17.40;;;11.10;91.40;;;;;;5053039;28;20025;-68
2022/04/23 02:14:07;;;;;;;25.17;18.98;;;11.00;91.50;;;;;;5051734;28;20051;-68
2022/04/23 02:16:33;;;;;;;22.17;18.38;;;11.10;91.70;;;;;;5052883;28;20032;-68
2022/04/23 02:18:59;;;;;;;24.38;18.80;;;11.00;91.80;;;;;;5052595;28;20159;-68
2022/04/23 02:21:25;;;;;;;22.95;19.50;;;11.00;92.00;;;;;;5052241;28;20036;-68
2022/04/23 02:23:53;;;;;;;18.58;16.40;;;11.00;92.10;;;;;;5051376;28;20560;-68
2022/04/23 02:26:20;;;;;;;20.92;18.02;;;11.00;92.10;;;;;;5053054;28;20484;-68
2022/04/23 02:28:51;;;;;;;22.70;18.02;;;11.00;92.20;;;;;;5052619;28;20390;-68
2022/04/23 02:31:17;;;;;;;23.27;19.73;;;11.00;92.20;;;;;;5052648;28;20100;-69
2022/04/23 02:33:44;;;;;;;22.83;19.25;;;11.00;92.30;;;;;;5052720;28;20437;-68
2022/04/23 02:36:11;;;;;;;25.38;19.92;;;11.00;92.40;;;;;;5052468;28;20028;-68
2022/04/23 02:38:41;;;;;;;22.33;18.58;;;11.00;92.60;;;;;;5052510;28;20025;-67
2022/04/23 02:41:08;;;;;;;22.50;17.48;;;11.00;92.60;;;;;;5051310;28;20021;-68
2022/04/23 02:43:38;;;;;;;26.92;20.42;;;11.00;92.60;;;;;;5052377;28;20045;-68
2022/04/23 02:46:04;;;;;;;22.83;19.63;;;11.10;92.80;;;;;;5052410;28;20021;-68
2022/04/23 02:48:29;;;;;;;23.52;19.38;;;11.10;92.80;;;;;;5052484;28;20029;-68
2022/04/23 02:50:55;;;;;;;26.85;21.27;;;11.10;92.80;;;;;;5052204;28;20488;-68
2022/04/23 02:53:21;;;;;;;26.95;21.35;;;11.10;92.90;;;;;;5052484;28;20082;-68
2022/04/23 02:55:46;;;;;;;26.15;21.38;;;11.10;93.00;;;;;;5050899;28;20025;-68
2022/04/23 02:58:12;;;;;;;24.98;20.88;;;11.10;93.10;;;;;;5052248;28;20025;-67
2022/04/23 03:00:41;;;;;;;25.25;20.75;;;11.10;93.10;;;;;;5052206;28;20025;-67
2022/04/23 03:03:11;;;;;;;27.67;22.60;;;11.10;93.10;;;;;;5052251;28;20044;-68
2022/04/23 03:05:41;;;;;;;27.25;22.65;;;11.10;93.20;;;;;;5051963;28;20017;-68
2022/04/23 03:08:07;;;;;;;28.05;22.63;;;11.10;93.30;;;;;;5052607;28;20025;-68
2022/04/23 03:10:32;;;;;;;27.83;22.00;;;11.10;93.40;;;;;;5052125;28;20493;-68
2022/04/23 03:12:58;;;;;;;24.83;21.48;;;11.10;93.40;;;;;;5051942;28;20037;-68
2022/04/23 03:15:28;;;;;;;27.85;22.17;;;11.00;93.40;;;;;;5052196;28;20104;-68
2022/04/23 03:18:10;;;;;;;24.05;20.23;;;11.10;93.50;;;;;;5052068;28;20192;-67
2022/04/23 03:20:41;;;;;;;24.35;19.88;;;11.10;93.50;;;;;;5051963;28;20021;-68
2022/04/23 03:23:06;;;;;;;23.77;20.23;;;11.10;93.40;;;;;;5051668;28;20489;-67
2022/04/23 03:25:32;;;;;;;22.02;19.15;;;11.10;93.40;;;;;;5052028;28;20028;-68
2022/04/23 03:28:00;;;;;;;23.95;20.40;;;11.10;93.50;;;;;;5051826;28;20032;-68
2022/04/23 03:30:26;;;;;;;27.90;22.88;;;11.10;93.50;;;;;;5051996;28;20032;-68
2022/04/23 03:32:51;;;;;;;24.33;20.10;;;11.10;93.70;;;;;;5052632;28;20108;-68
2022/04/23 03:35:17;;;;;;;25.25;21.08;;;11.00;93.70;;;;;;5055728;28;20109;-67
2022/04/23 03:37:42;;;;;;;27.23;22.55;;;11.00;93.80;;;;;;5055768;28;20032;-67
2022/04/23 03:40:09;;;;;;;23.90;20.13;;;11.00;93.90;;;;;;5056067;28;20477;-68
2022/04/23 03:42:36;;;;;;;25.50;20.48;;;11.00;93.90;;;;;;5055720;28;20440;-69
2022/04/23 03:45:03;;;;;;;24.85;20.90;;;11.00;94.00;;;;;;5055766;28;20021;-68
2022/04/23 03:47:28;;;;;;;26.83;22.60;;;11.00;94.00;;;;;;5055717;28;20040;-67
2022/04/23 03:49:54;;;;;;;25.48;21.05;;;10.90;94.10;;;;;;5055611;28;20025;-68
2022/04/23 03:52:19;;;;;;;27.98;23.20;;;10.90;94.10;;;;;;5055626;28;20108;-67
2022/04/23 03:54:46;;;;;;;27.42;23.33;;;10.90;94.10;;;;;;5055619;28;20032;-68
2022/04/23 03:57:12;;;;;;;24.70;22.00;;;10.90;94.30;;;;;;5055593;28;20025;-68
2022/04/23 03:59:37;;;;;;;27.58;22.88;;;10.90;94.30;;;;;;5055544;28;20035;-67
2022/04/23 04:02:06;;;;;;;27.10;22.40;;;10.90;94.40;;;;;;5055670;28;20052;-68
2022/04/23 04:04:32;;;;;;;27.00;22.50;;;10.90;94.50;;;;;;5055516;28;20025;-67
2022/04/23 04:06:59;;;;;;;28.13;24.13;;;10.80;94.60;;;;;;5053890;28;20036;-67
2022/04/23 04:09:26;;;;;;;26.98;22.95;;;10.80;94.70;;;;;;5055427;28;20689;-67
2022/04/23 04:12:01;;;;;;;25.92;20.83;;;10.80;94.80;;;;;;5055139;28;20021;-67
2022/04/23 04:14:27;;;;;;;27.00;21.95;;;10.80;94.80;;;;;;5054770;28;20017;-68
2022/04/23 04:16:54;;;;;;;25.70;22.15;;;10.80;95.20;;;;;;5045215;28;20461;-68
2022/04/23 04:19:19;;;;;;;25.02;20.75;;;10.80;95.00;;;;;;5036334;28;20386;-67
2022/04/23 04:21:46;;;;;;;26.90;22.35;;;10.80;95.00;;;;;;5041055;28;20025;-68
2022/04/23 04:24:16;;;;;;;24.58;21.80;;;10.80;95.10;;;;;;5036220;28;20449;-68
2022/04/23 04:26:52;;;;;;;26.40;22.90;;;10.80;95.10;;;;;;5036308;28;20048;-68
2022/04/23 04:29:18;;;;;;;28.90;24.73;;;10.80;95.20;;;;;;5036278;28;20082;-67
2022/04/23 04:31:49;;;;;;;29.65;24.73;;;10.70;95.50;;;;;;5041803;28;20108;-68
2022/04/23 04:34:24;;;;;;;27.75;22.85;;;10.70;95.60;;;;;;5039024;28;20032;-67
2022/04/23 04:36:51;;;;;;;26.88;23.25;;;10.70;95.70;;;;;;5037934;28;20035;-68
2022/04/23 04:39:18;;;;;;;24.15;20.55;;;10.70;95.80;;;;;;5041501;28;20057;-68
2022/04/23 04:41:44;;;;;;;27.52;22.80;;;10.70;95.80;;;;;;5035691;28;20021;-68
2022/04/23 04:44:10;;;;;;;25.30;21.48;;;10.70;95.80;;;;;;5032702;28;20505;-68
2022/04/23 04:46:36;;;;;;;24.75;21.48;;;10.70;95.90;;;;;;5038249;28;20026;-67
2022/04/23 04:49:04;;;;;;;25.75;22.05;;;10.70;95.90;;;;;;5035818;28;20076;-67
2022/04/23 04:51:30;;;;;;;24.15;21.13;;;10.70;95.90;;;;;;5039120;28;20469;-67
2022/04/23 04:53:56;;;;;;;26.63;22.13;;;10.70;95.90;;;;;;5032358;28;20033;-68
2022/04/23 04:56:22;;;;;;;27.77;22.40;;;10.60;95.90;;;;;;5034206;28;20033;-67
2022/04/23 04:58:48;;;;;;;27.55;23.13;;;10.60;96.00;;;;;;5029142;28;20044;-68
2022/04/23 05:01:14;;;;;;;25.25;21.58;;;10.60;96.00;;;;;;5055554;28;20063;-67
2022/04/23 05:03:40;;;;;;;28.58;23.45;;;10.60;96.10;;;;;;5040040;28;20033;-67
2022/04/23 05:06:09;;;;;;;26.88;22.25;;;10.60;96.20;;;;;;5033322;28;20021;-68
2022/04/23 05:08:36;;;;;;;28.38;23.52;;;10.50;96.30;;;;;;5040297;28;20033;-68
2022/04/23 05:11:02;;;;;;;25.15;22.40;;;10.50;96.40;;;;;;5030774;28;20033;-67
2022/04/23 05:13:28;;;;;;;28.33;23.27;;;10.60;96.50;;;;;;5030245;28;20112;-68
2022/04/23 05:15:54;;;;;;;26.63;23.30;;;10.60;96.50;;;;;;5038532;28;20117;-67
2022/04/23 05:18:19;;;;;;;28.20;25.15;;;10.60;96.50;;;;;;5035581;28;20504;-68
2022/04/23 05:20:45;;;;;;;25.50;22.70;;;10.60;96.60;;;;;;5038113;28;20047;-68
2022/04/23 05:23:10;;;;;;;27.13;23.42;;;10.60;96.70;;;;;;5038062;28;20128;-68
2022/04/23 05:25:36;;;;;;;25.65;22.63;;;10.60;96.70;;;;;;5040950;28;20408;-67
2022/04/23 05:28:02;;;;;;;29.10;24.67;;;10.60;96.80;;;;;;5033960;28;20021;-68
2022/04/23 05:30:27;;;;;;;26.98;23.55;;;10.60;96.90;;;;;;5032991;28;20174;-67
2022/04/23 05:32:53;;;;;;;31.83;24.65;;;10.60;96.90;;;;;;5039573;28;20057;-68
2022/04/23 05:35:19;;;;;;;24.63;22.02;;;10.60;96.90;;;;;;5036341;28;20548;-67
2022/04/23 05:37:44;;;;;;;26.33;22.58;;;10.60;97.00;;;;;;5032899;28;20029;-67
2022/04/23 05:40:10;;;;;;;25.83;23.05;;;10.70;97.00;;;;;;5037872;28;20103;-67
2022/04/23 05:42:36;;;;;;;28.48;23.00;;;10.70;97.00;;;;;;5037229;28;20040;-67
2022/04/23 05:45:01;;;;;;;27.80;23.98;;;10.70;97.00;;;;;;5033062;28;20022;-67
2022/04/23 05:47:27;;;;;;;27.98;24.08;;;10.70;97.00;;;;;;5037965;28;20045;-67
2022/04/23 05:49:52;;;;;;;27.13;22.92;;;10.70;97.10;;;;;;5036592;28;20033;-67
2022/04/23 05:52:18;;;;;;;25.77;22.63;;;10.70;97.00;;;;;;5036440;28;20484;-67
2022/04/23 05:54:44;;;;;;;25.63;22.70;;;10.70;97.00;;;;;;5029701;28;20076;-67
2022/04/23 05:57:09;;;;;;;26.00;22.05;;;10.80;97.00;;;;;;5032079;28;20021;-67
2022/04/23 05:59:35;;;;;;;27.27;23.38;;;10.80;96.90;;;;;;5036968;28;20091;-68
2022/04/23 06:02:00;;;;;;;27.00;23.48;;;10.80;96.80;;;;;;5034160;28;20041;-67
2022/04/23 06:04:27;;;;;;;26.08;23.33;;;10.90;96.90;;;;;;5037967;28;20032;-67
2022/04/23 06:06:53;;;;;;;25.05;21.80;;;10.80;96.90;;;;;;5036963;28;20056;-67
2022/04/23 06:09:18;;;;;;;26.73;22.95;;;10.90;96.90;;;;;;5040478;28;20049;-67
2022/04/23 06:11:44;;;;;;;27.52;22.88;;;10.90;96.80;;;;;;5043539;28;20017;-67
2022/04/23 06:14:09;;;;;;;27.27;24.33;;;10.90;97.10;;;;;;5043467;28;20025;-67
2022/04/23 06:16:36;;;;;;;26.90;23.20;;;10.90;96.90;;;;;;5039138;28;20595;-67
2022/04/23 06:19:09;;;;;;;26.17;23.38;;;10.90;97.00;;;;;;5113147;27;20133;-68
2022/04/23 06:21:35;;;;;;;25.38;22.02;;;10.90;96.90;;;;;;5090241;28;20139;-68
2022/04/23 06:24:00;;;;;;;27.25;23.35;;;10.90;96.90;;;;;;5086006;28;20449;-68
2022/04/23 06:26:26;;;;;;;27.90;23.73;;;11.00;96.90;;;;;;5087482;28;20020;-68
2022/04/23 06:28:51;;;;;;;26.42;23.38;;;11.00;96.90;;;;;;5090006;28;20035;-68
2022/04/23 06:31:17;;;;;;;26.73;22.27;;;11.00;96.90;;;;;;5096244;28;20030;-68
2022/04/23 06:33:43;;;;;;;24.08;20.25;;;11.10;97.00;;;;;;5093031;28;20020;-69
2022/04/23 06:36:10;;;;;;;27.52;21.13;;;11.10;96.90;;;;;;5083393;28;20031;-68
2022/04/23 06:38:36;;;;;;;26.40;23.55;;;11.20;96.80;;;;;;5084540;28;20021;-68
2022/04/23 06:41:02;;;;;;;26.42;22.42;;;11.20;96.80;;;;;;5073239;28;20520;-68
2022/04/23 06:43:27;;;;;;;28.30;22.70;;;11.20;96.70;;;;;;5069413;28;20029;-68
2022/04/23 06:45:53;;;;;;;24.65;21.73;;;11.20;96.60;;;;;;5084649;28;20021;-68
2022/04/23 06:48:18;;;;;;;24.08;21.20;;;11.30;96.60;;;;;;5068971;28;20464;-68
2022/04/23 06:50:44;;;;;;;25.20;22.50;;;11.40;96.70;;;;;;5068997;28;20103;-68
2022/04/23 06:53:09;;;;;;;27.08;23.65;;;11.40;96.60;;;;;;5084953;28;20028;-68
2022/04/23 06:55:35;;;;;;;25.13;22.38;;;11.40;96.50;;;;;;5100842;28;20081;-68
2022/04/23 06:58:00;;;;;;;26.85;23.85;;;11.40;96.50;;;;;;5071566;28;20025;-68
2022/04/23 07:00:26;;;;;;;28.30;23.25;;;11.50;96.50;;;;;;5087845;28;20024;-68
2022/04/23 07:02:52;;;;;;;25.92;22.55;;;11.50;96.40;;;;;;5091081;28;20020;-69
2022/04/23 07:05:18;;;;;;;26.10;22.77;;;11.60;96.30;;;;;;5088412;28;20020;-68
2022/04/23 07:08:01;;;;;;;24.55;21.95;;;11.60;96.30;;;;;;5088454;28;20397;-68
2022/04/23 07:10:30;;;;;;;24.98;21.63;;;11.80;96.20;;;;;;5088878;28;20373;-68
2022/04/23 07:12:56;;;;;;;25.80;22.38;;;11.80;96.20;;;;;;5088738;28;20127;-68
2022/04/23 07:15:23;;;;;;;23.83;21.42;;;11.90;96.00;;;;;;5088726;28;20103;-68
2022/04/23 07:17:50;;;;;;;26.02;21.38;;;11.90;95.70;;;;;;5088453;28;20109;-68
2022/04/23 07:20:16;;;;;;;24.05;21.48;;;12.00;95.60;;;;;;5088658;28;20020;-69
2022/04/23 07:25:27;;;;;;;25.60;22.40;;;12.10;95.40;;;;;;5086855;28;20035;-68
2022/04/23 07:27:52;;;;;;;25.92;23.05;;;12.10;95.20;;;;;;5087955;28;20032;-68
2022/04/23 07:30:18;;;;;;;23.40;20.95;;;12.20;95.00;;;;;;5075210;28;20528;-68
2022/04/23 07:32:43;;;;;;;27.25;23.17;;;12.30;94.80;;;;;;5072416;28;20028;-68
2022/04/23 07:37:53;;;;;;;25.38;22.58;;;12.30;94.50;;;;;;5067499;28;20039;-68
2022/04/23 07:40:18;;;;;;;26.15;23.13;;;12.40;94.60;;;;;;5073963;28;20104;-68
2022/04/23 07:42:44;;;;;;;25.58;22.80;;;12.50;94.40;;;;;;5067654;28;20392;-68
2022/04/23 07:45:10;;;;;;;27.35;22.80;;;12.60;94.30;;;;;;5069718;28;20028;-68
2022/04/23 07:47:35;;;;;;;25.88;22.27;;;12.60;94.00;;;;;;5070868;28;20441;-68
2022/04/23 07:50:01;;;;;;;24.80;21.25;;;12.70;94.10;;;;;;5072942;28;20028;-68
2022/04/23 07:52:28;;;;;;;24.50;21.13;;;12.80;93.80;;;;;;5072924;28;20020;-68
2022/04/23 07:54:53;;;;;;;25.48;22.17;;;12.90;93.70;;;;;;5088109;28;20024;-68
2022/04/23 07:57:23;;;;;;;25.50;22.80;;;13.00;93.60;;;;;;5072812;28;20021;-68
2022/04/23 07:59:49;;;;;;;23.77;21.05;;;13.00;93.50;;;;;;5072457;28;20173;-68
2022/04/23 08:02:14;;;;;;;25.63;22.70;;;13.10;93.40;;;;;;5071927;28;20502;-68
2022/04/23 08:04:40;;;;;;;26.73;23.00;;;13.30;93.30;;;;;;5074173;28;20028;-68
2022/04/23 08:07:05;;;;;;;25.55;22.60;;;13.30;93.10;;;;;;5074386;28;20035;-68
2022/04/23 08:09:37;;;;;;;24.48;21.83;;;13.40;93.00;;;;;;5074225;28;20039;-68
2022/04/23 08:12:07;;;;;;;30.15;24.65;;;13.50;92.90;;;;;;5074068;28;20028;-68
2022/04/23 08:14:33;;;;;;;24.55;21.88;;;13.60;92.10;;;;;;5089217;28;20033;-68
2022/04/23 08:16:59;;;;;;;22.70;20.30;;;13.70;90.90;;;;;;5073689;28;20028;-68
2022/04/23 08:19:25;;;;;;;24.33;21.58;;;13.80;90.50;;;;;;5072367;28;20024;-68
2022/04/23 08:21:51;;;;;;;24.05;21.40;;;13.90;90.10;;;;;;5072560;28;20508;-68
2022/04/23 08:24:16;;;;;;;24.85;22.13;;;14.00;89.40;;;;;;5073617;28;20032;-68
2022/04/23 08:26:42;;;;;;;23.83;21.33;;;14.10;88.70;;;;;;5073424;28;20100;-68
2022/04/23 08:31:52;;;;;;;24.52;21.90;;;14.30;87.80;;;;;;5073750;28;20416;-68
2022/04/23 08:34:18;;;;;;;25.10;22.30;;;14.40;86.80;;;;;;5073654;28;20078;-68
2022/04/23 08:36:44;;;;;;;24.00;21.50;;;14.50;85.70;;;;;;5073542;28;20032;-68
2022/04/23 08:39:09;;;;;;;23.88;21.42;;;14.50;84.70;;;;;;5073631;28;20060;-68
2022/04/23 08:41:35;;;;;;;24.05;21.48;;;14.60;84.20;;;;;;5067784;28;20039;-68
2022/04/23 08:44:06;;;;;;;23.35;20.85;;;14.70;83.70;;;;;;5069000;28;20439;-68
2022/04/23 08:46:37;;;;;;;23.35;20.85;;;14.80;83.10;;;;;;5069080;28;20456;-68
2022/04/23 08:49:11;;;;;;;22.85;20.55;;;14.90;82.70;;;;;;5071318;28;20100;-68
2022/04/23 08:51:38;;;;;;;25.13;22.45;;;15.10;82.90;;;;;;5068495;28;20023;-68
2022/04/23 08:54:07;;;;;;;24.48;20.65;;;15.20;81.50;;;;;;5062535;28;20044;-68
2022/04/23 08:56:33;;;;;;;24.23;21.50;;;15.30;80.80;;;;;;5062149;28;20056;-69
2022/04/23 08:59:00;;;;;;;25.13;21.63;;;15.40;81.30;;;;;;5055931;28;20041;-68
2022/04/23 09:01:25;;;;;;;24.63;21.10;;;15.50;80.60;;;;;;5053015;28;20029;-69
2022/04/23 09:03:51;;;;;;;24.83;21.92;;;15.60;79.10;;;;;;5053116;28;20527;-68
2022/04/23 09:06:17;;;;;;;24.05;21.33;;;15.70;78.20;;;;;;5053128;28;20031;-69
2022/04/23 09:09:05;;;;;;;21.70;19.38;;;15.80;77.80;;;;;;5053084;28;20029;-68
2022/04/23 09:11:39;;;;;;;21.35;19.15;;;15.90;77.20;;;;;;5052897;28;20028;-68
2022/04/23 09:14:06;;;;;;;23.08;20.45;;;16.10;76.60;;;;;;5052951;28;20025;-69
2022/04/23 09:25:36;;;;;;;22.10;19.80;;;16.50;75.70;;;;;;5050415;28;20040;-68
2022/04/23 09:28:20;;;;;;;21.77;19.50;;;16.50;74.60;;;;;;5069595;28;20047;-68
2022/04/23 09:30:54;;;;;;;21.02;18.88;;;16.60;73.80;;;;;;5072539;28;20021;-68
2022/04/23 09:33:27;;;;;;;24.23;21.63;;;16.70;73.80;;;;;;5068830;28;20034;-68
2022/04/23 09:35:58;;;;;;;21.80;19.38;;;16.90;73.60;;;;;;5064428;28;20161;-69
2022/04/23 09:38:25;;;;;;;21.23;18.92;;;17.00;72.60;;;;;;5069484;28;20024;-69
2022/04/23 09:40:58;;;;;;;21.58;19.38;;;17.20;72.20;;;;;;5071234;28;20039;-68
2022/04/23 09:43:33;;;;;;;22.42;20.05;;;17.30;71.10;;;;;;5072255;28;20025;-68
2022/04/23 09:46:08;;;;;;;21.95;19.65;;;17.50;71.60;;;;;;5070974;28;20020;-68
2022/04/23 09:48:43;;;;;;;22.25;19.92;;;17.60;69.90;;;;;;5068504;28;20017;-68
2022/04/23 09:51:26;;;;;;;22.83;20.33;;;17.60;69.50;;;;;;5067822;28;20142;-68
2022/04/23 09:53:54;;;;;;;22.98;20.52;;;17.70;68.60;;;;;;5070387;28;20032;-69
2022/04/23 09:56:26;;;;;;;21.60;19.27;;;17.70;67.80;;;;;;5066546;28;20491;-69
2022/04/23 09:58:52;;;;;;;22.92;20.52;;;17.80;67.70;;;;;;5059330;28;20129;-69
2022/04/23 10:01:19;;;;;;;23.65;21.17;;;17.90;67.70;;;;;;5052290;28;20025;-68
2022/04/23 10:03:52;;;;;;;22.70;20.25;;;18.00;67.70;;;;;;5052071;28;20059;-69
2022/04/23 10:06:20;;;;;;;22.73;20.20;;;18.10;67.70;;;;;;5052191;28;20013;-68
2022/04/23 10:08:49;;;;;;;22.42;20.10;;;18.10;66.60;;;;;;5051895;28;20036;-68
2022/04/23 10:11:23;;;;;;;21.90;19.60;;;18.20;65.90;;;;;;5052124;28;20032;-68
2022/04/23 10:13:53;;;;;;;22.75;20.45;;;18.20;65.60;;;;;;5051833;28;20029;-69
2022/04/23 10:16:19;;;;;;;21.67;19.45;;;18.20;65.50;;;;;;5051719;28;20029;-69
2022/04/23 10:18:46;;;;;;;20.85;18.65;;;18.30;65.50;;;;;;5050163;28;20053;-69
2022/04/23 10:21:32;;;;;;;23.63;19.25;;;18.40;65.10;;;;;;5051865;28;20051;-68
2022/04/23 10:24:31;;;;;;;21.90;19.60;;;18.40;65.40;;;;;;5051786;28;20040;-68
2022/04/23 10:27:07;;;;;;;23.40;21.00;;;18.50;65.30;;;;;;5051698;28;20043;-68
2022/04/23 10:29:33;;;;;;;23.30;20.80;;;18.60;65.00;;;;;;5051831;28;20025;-68
2022/04/23 10:32:13;;;;;;;21.45;18.90;;;18.60;65.50;;;;;;5051519;28;20481;-68
2022/04/23 10:34:40;;;;;;;23.17;20.67;;;18.80;64.40;;;;;;5052747;28;20048;-68
2022/04/23 10:37:23;;;;;;;21.77;18.95;;;19.00;64.60;;;;;;5070921;28;20055;-69
2022/04/23 10:39:51;;;;;;;22.00;19.20;;;19.30;62.90;;;;;;5069829;28;20044;-69
2022/04/23 10:42:21;;;;;;;23.27;20.17;;;19.50;62.50;;;;;;5069975;28;20027;-69
2022/04/23 10:44:48;;;;;;;;;;;19.40;60.80;;;;;;5067358;28;20052;-68
2022/04/23 10:47:28;;;;;;;21.63;17.88;;;19.40;61.20;;;;;;5071310;28;20011;-69
2022/04/23 10:50:13;;;;;;;23.33;20.83;;;19.60;60.90;;;;;;5068093;28;20047;-69
2022/04/23 10:52:39;;;;;;;20.67;18.58;;;19.80;59.70;;;;;;5071622;28;20028;-69
2022/04/23 10:55:06;;;;;;;22.23;19.10;;;19.90;59.70;;;;;;5083115;28;20082;-68
2022/04/23 10:57:32;;;;;;;23.75;20.50;;;20.10;59.20;;;;;;5060757;28;20025;-69
2022/04/23 11:00:15;;;;;;;19.00;16.65;;;20.30;58.70;;;;;;5051570;28;20036;-69
2022/04/23 11:02:41;;;;;;;18.95;16.73;;;20.40;58.10;;;;;;5051605;28;20028;-68
2022/04/23 11:13:50;;;;;;;21.38;18.90;;;21.50;56.80;;;;;;5069091;28;20028;-69
2022/04/23 11:16:16;;;;;;;19.58;17.48;;;21.80;55.60;;;;;;5068161;28;20099;-69
2022/04/23 11:18:49;;;;;;;19.25;17.15;;;21.90;54.40;;;;;;5071085;28;20076;-69
2022/04/23 11:21:30;;;;;;;22.20;19.70;;;22.20;53.50;;;;;;5073476;28;20016;-69
2022/04/23 11:23:58;;;;;;;23.45;20.75;;;22.20;52.20;;;;;;5073451;28;20228;-69
2022/04/23 11:26:44;;;;;;;14.82;13.27;;;22.20;51.20;;;;;;5070983;28;20104;-68
2022/04/23 11:29:10;;;;;;;18.48;14.85;;;22.30;52.80;;;;;;5073972;28;20024;-69
2022/04/23 11:31:36;;;;;;;17.17;14.38;;;22.60;52.30;;;;;;5074777;28;20031;-67
2022/04/23 11:34:03;;;;;;;15.93;14.25;;;23.00;51.30;;;;;;5090392;28;20032;-68
2022/04/23 11:36:31;;;;;;;17.02;15.18;;;23.40;50.90;;;;;;5074727;28;20477;-68
2022/04/23 11:38:59;;;;;;;17.83;16.02;;;23.50;50.60;;;;;;5075060;28;20048;-68
2022/04/23 11:41:39;;;;;;;16.50;14.80;;;23.60;51.30;;;;;;5074834;28;20027;-68
2022/04/23 11:44:16;;;;;;;;;;;23.80;50.20;;;;;;5075238;28;20263;-68
2022/04/23 11:46:42;;;;;;;17.92;15.80;;;24.00;49.40;;;;;;5070941;28;20383;-68
2022/04/23 11:49:08;;;;;;;17.95;16.05;;;24.10;49.20;;;;;;5070456;28;20115;-68
2022/04/23 11:51:33;;;;;;;17.13;15.32;;;24.20;48.80;;;;;;5072831;28;20052;-68
2022/04/23 11:54:00;;;;;;;18.60;16.60;;;24.20;48.30;;;;;;5072807;28;20035;-68
2022/04/23 11:56:28;;;;;;;15.57;13.98;;;24.20;48.80;;;;;;5072926;28;20020;-68
2022/04/23 11:59:00;;;;;;;17.70;16.00;;;24.30;48.50;;;;;;5070229;28;20013;-68
2022/04/23 12:01:27;;;;;;;17.35;15.55;;;24.30;47.70;;;;;;5070057;28;20016;-68
2022/04/23 12:03:55;;;;;;;15.55;13.95;;;24.20;47.80;;;;;;5072728;28;20095;-67
2022/04/23 12:06:21;;;;;;;15.95;14.40;;;24.30;48.00;;;;;;5069939;28;20511;-67
2022/04/23 12:08:47;;;;;;;18.90;17.00;;;24.40;47.80;;;;;;5069836;28;20020;-67
2022/04/23 12:11:19;;;;;;;17.15;15.40;;;24.50;47.50;;;;;;5066124;28;20070;-67
2022/04/23 12:13:48;;;;;;;17.60;15.45;;;24.40;47.10;;;;;;5072491;28;20484;-67
2022/04/23 12:16:32;;;;;;;16.20;14.60;;;24.50;47.30;;;;;;5068260;28;20028;-67
2022/04/23 12:19:10;;;;;;;14.82;13.32;;;24.70;46.70;;;;;;5062170;28;20055;-67
2022/04/23 12:21:37;;;;;;;15.60;13.73;;;24.90;46.50;;;;;;5088851;28;20021;-68
2022/04/23 12:24:04;;;;;;;14.90;13.50;;;25.20;46.80;;;;;;5073073;28;20020;-67
2022/04/23 12:26:37;;;;;;;16.77;14.93;;;25.40;46.10;;;;;;5073937;28;20032;-67
2022/04/23 12:43:28;;;;;;;15.20;13.65;;;25.50;44.50;;;;;;5073792;28;20587;-67
2022/04/23 12:46:06;;;;;;;15.20;13.65;;;25.60;44.00;;;;;;5073519;28;20472;-68
2022/04/23 12:48:33;;;;;;;15.10;13.60;;;25.80;44.60;;;;;;5073524;28;20162;-68
2022/04/23 12:51:06;;;;;;;14.40;13.00;;;25.90;44.40;;;;;;5073361;28;20031;-67
2022/04/23 12:53:36;;;;;;;14.60;13.07;;;26.10;44.00;;;;;;5073499;28;20024;-67
2022/04/23 12:56:05;;;;;;;16.42;14.73;;;26.30;44.20;;;;;;5073120;28;20028;-67
2022/04/23 12:58:31;;;;;;;;;;;26.40;42.80;;;;;;5073667;28;20532;-67
2022/04/23 13:00:56;;;;;;;14.57;13.07;;;26.30;43.60;;;;;;5073509;28;20015;-68
2022/04/23 13:03:41;;;;;;;13.70;12.30;;;26.30;43.00;;;;;;5073156;28;20033;-67
2022/04/23 13:08:54;;;;;;;16.17;14.45;;;26.40;42.50;;;;;;5071965;28;20024;-67
2022/04/23 13:08:56;;;;;;;16.65;15.00;;;26.50;43.00;;;;;;5072869;28;20032;-67
2022/04/23 13:11:27;;;;;;;16.15;14.27;;;26.40;42.80;;;;;;5073254;28;20025;-68
2022/04/23 13:13:56;;;;;;;14.85;13.10;;;26.30;42.70;;;;;;5073178;28;20024;-67